sensor_id;sensor_type;location;lat;lon;timestamp;P1;durP1;ratioP1;P2;durP2;ratioP2
59854;SDS011;45732;52.850;6.896;2023-05-10T00:01:47;10.85;;;9.63;;
59854;SDS011;45732;52.850;6.896;2023-05-10T00:04:13;9.52;;;7.00;;
59854;SDS011;45732;52.850;6.896;2023-05-10T00:06:39;8.70;;;6.78;;
59854;SDS011;45732;52.850;6.896;2023-05-10T00:09:05;10.23;;;7.68;;
59854;SDS011;45732;52.850;6.896;2023-05-10T00:11:31;11.23;;;9.00;;
59854;SDS011;45732;52.850;6.896;2023-05-10T00:13:56;11.05;;;9.80;;
59854;SDS011;45732;52.850;6.896;2023-05-10T00:16:22;12.45;;;11.05;;
59854;SDS011;45732;52.850;6.896;2023-05-10T00:18:48;12.38;;;11.10;;
59854;SDS011;45732;52.850;6.896;2023-05-10T00:21:14;12.88;;;11.52;;
59854;SDS011;45732;52.850;6.896;2023-05-10T00:23:39;12.38;;;11.07;;
59854;SDS011;45732;52.850;6.896;2023-05-10T00:26:05;13.98;;;11.35;;
59854;SDS011;45732;52.850;6.896;2023-05-10T00:28:31;13.52;;;12.13;;
59854;SDS011;45732;52.850;6.896;2023-05-10T00:30:56;13.35;;;11.98;;
59854;SDS011;45732;52.850;6.896;2023-05-10T00:33:22;13.90;;;12.40;;
59854;SDS011;45732;52.850;6.896;2023-05-10T00:35:48;13.27;;;11.82;;
59854;SDS011;45732;52.850;6.896;2023-05-10T00:38:14;14.10;;;12.60;;
59854;SDS011;45732;52.850;6.896;2023-05-10T00:40:39;16.60;;;14.75;;
59854;SDS011;45732;52.850;6.896;2023-05-10T00:43:05;14.27;;;12.77;;
59854;SDS011;45732;52.850;6.896;2023-05-10T00:45:32;14.15;;;12.68;;
59854;SDS011;45732;52.850;6.896;2023-05-10T00:47:58;16.63;;;12.10;;
59854;SDS011;45732;52.850;6.896;2023-05-10T00:50:27;15.30;;;13.48;;
59854;SDS011;45732;52.850;6.896;2023-05-10T00:52:53;13.57;;;11.93;;
59854;SDS011;45732;52.850;6.896;2023-05-10T00:55:19;16.05;;;13.02;;
59854;SDS011;45732;52.850;6.896;2023-05-10T00:57:45;13.43;;;11.57;;
59854;SDS011;45732;52.850;6.896;2023-05-10T01:00:12;12.48;;;10.73;;
59854;SDS011;45732;52.850;6.896;2023-05-10T01:02:42;11.57;;;10.18;;
59854;SDS011;45732;52.850;6.896;2023-05-10T01:05:11;13.32;;;10.52;;
59854;SDS011;45732;52.850;6.896;2023-05-10T01:07:38;12.55;;;10.65;;
59854;SDS011;45732;52.850;6.896;2023-05-10T01:10:07;12.63;;;10.73;;
59854;SDS011;45732;52.850;6.896;2023-05-10T01:12:35;12.27;;;10.13;;
59854;SDS011;45732;52.850;6.896;2023-05-10T01:15:07;11.85;;;10.27;;
59854;SDS011;45732;52.850;6.896;2023-05-10T01:17:35;12.00;;;10.25;;
59854;SDS011;45732;52.850;6.896;2023-05-10T01:20:03;12.07;;;10.13;;
59854;SDS011;45732;52.850;6.896;2023-05-10T01:28:12;11.60;;;9.60;;
59854;SDS011;45732;52.850;6.896;2023-05-10T01:34:02;11.60;;;9.93;;
59854;SDS011;45732;52.850;6.896;2023-05-10T01:36:35;12.70;;;10.60;;
59854;SDS011;45732;52.850;6.896;2023-05-10T01:47:12;13.85;;;11.13;;
59854;SDS011;45732;52.850;6.896;2023-05-10T01:50:27;12.50;;;10.40;;
59854;SDS011;45732;52.850;6.896;2023-05-10T01:56:12;11.48;;;9.82;;
59854;SDS011;45732;52.850;6.896;2023-05-10T01:58:39;14.18;;;11.02;;
59854;SDS011;45732;52.850;6.896;2023-05-10T02:01:09;12.60;;;10.43;;
59854;SDS011;45732;52.850;6.896;2023-05-10T02:03:36;11.98;;;10.00;;
59854;SDS011;45732;52.850;6.896;2023-05-10T02:06:03;14.57;;;10.88;;
59854;SDS011;45732;52.850;6.896;2023-05-10T02:08:30;12.30;;;10.15;;
59854;SDS011;45732;52.850;6.896;2023-05-10T02:10:57;13.20;;;10.63;;
59854;SDS011;45732;52.850;6.896;2023-05-10T02:13:25;12.38;;;9.80;;
59854;SDS011;45732;52.850;6.896;2023-05-10T02:15:52;14.07;;;10.25;;
59854;SDS011;45732;52.850;6.896;2023-05-10T02:18:19;12.55;;;10.13;;
59854;SDS011;45732;52.850;6.896;2023-05-10T02:20:47;12.63;;;9.80;;
59854;SDS011;45732;52.850;6.896;2023-05-10T02:23:13;13.55;;;9.90;;
59854;SDS011;45732;52.850;6.896;2023-05-10T02:25:41;13.07;;;10.07;;
59854;SDS011;45732;52.850;6.896;2023-05-10T02:28:08;12.68;;;9.43;;
59854;SDS011;45732;52.850;6.896;2023-05-10T02:30:36;13.27;;;9.95;;
59854;SDS011;45732;52.850;6.896;2023-05-10T02:33:04;10.82;;;9.27;;
59854;SDS011;45732;52.850;6.896;2023-05-10T02:35:30;12.10;;;9.38;;
59854;SDS011;45732;52.850;6.896;2023-05-10T02:37:58;12.35;;;9.05;;
59854;SDS011;45732;52.850;6.896;2023-05-10T02:40:25;10.70;;;8.80;;
59854;SDS011;45732;52.850;6.896;2023-05-10T02:42:54;11.57;;;8.80;;
59854;SDS011;45732;52.850;6.896;2023-05-10T02:45:22;11.50;;;9.55;;
59854;SDS011;45732;52.850;6.896;2023-05-10T02:47:51;12.48;;;9.20;;
59854;SDS011;45732;52.850;6.896;2023-05-10T02:50:17;12.30;;;9.20;;
59854;SDS011;45732;52.850;6.896;2023-05-10T02:52:47;11.50;;;9.38;;
59854;SDS011;45732;52.850;6.896;2023-05-10T02:55:19;10.70;;;8.52;;
59854;SDS011;45732;52.850;6.896;2023-05-10T02:57:54;11.00;;;9.00;;
59854;SDS011;45732;52.850;6.896;2023-05-10T03:00:25;13.77;;;9.80;;
59854;SDS011;45732;52.850;6.896;2023-05-10T03:02:51;11.73;;;8.98;;
59854;SDS011;45732;52.850;6.896;2023-05-10T03:05:17;10.93;;;8.45;;
59854;SDS011;45732;52.850;6.896;2023-05-10T03:07:43;12.15;;;9.15;;
59854;SDS011;45732;52.850;6.896;2023-05-10T03:10:10;12.57;;;9.50;;
59854;SDS011;45732;52.850;6.896;2023-05-10T03:18:08;11.25;;;8.57;;
59854;SDS011;45732;52.850;6.896;2023-05-10T03:20:50;11.43;;;8.93;;
59854;SDS011;45732;52.850;6.896;2023-05-10T03:26:00;12.45;;;8.95;;
59854;SDS011;45732;52.850;6.896;2023-05-10T03:28:27;11.55;;;9.20;;
59854;SDS011;45732;52.850;6.896;2023-05-10T03:30:54;11.23;;;9.15;;
59854;SDS011;45732;52.850;6.896;2023-05-10T03:33:21;11.90;;;9.25;;
59854;SDS011;45732;52.850;6.896;2023-05-10T03:35:47;12.57;;;8.98;;
59854;SDS011;45732;52.850;6.896;2023-05-10T03:38:13;12.23;;;9.20;;
59854;SDS011;45732;52.850;6.896;2023-05-10T03:40:39;10.98;;;8.25;;
59854;SDS011;45732;52.850;6.896;2023-05-10T03:43:04;10.85;;;8.65;;
59854;SDS011;45732;52.850;6.896;2023-05-10T03:45:30;10.63;;;8.13;;
59854;SDS011;45732;52.850;6.896;2023-05-10T03:47:56;11.73;;;8.95;;
59854;SDS011;45732;52.850;6.896;2023-05-10T03:50:22;11.35;;;8.52;;
59854;SDS011;45732;52.850;6.896;2023-05-10T03:52:48;11.70;;;8.75;;
59854;SDS011;45732;52.850;6.896;2023-05-10T03:55:14;11.15;;;8.45;;
59854;SDS011;45732;52.850;6.896;2023-05-10T03:57:40;10.48;;;8.50;;
59854;SDS011;45732;52.850;6.896;2023-05-10T04:00:06;10.48;;;8.00;;
59854;SDS011;45732;52.850;6.896;2023-05-10T04:02:32;10.10;;;8.05;;
59854;SDS011;45732;52.850;6.896;2023-05-10T04:04:57;12.07;;;8.48;;
59854;SDS011;45732;52.850;6.896;2023-05-10T04:07:23;11.27;;;7.70;;
59854;SDS011;45732;52.850;6.896;2023-05-10T04:09:49;10.18;;;7.60;;
59854;SDS011;45732;52.850;6.896;2023-05-10T04:12:15;11.38;;;8.05;;
59854;SDS011;45732;52.850;6.896;2023-05-10T04:14:40;11.13;;;7.82;;
59854;SDS011;45732;52.850;6.896;2023-05-10T04:17:06;9.48;;;7.03;;
59854;SDS011;45732;52.850;6.896;2023-05-10T04:19:32;12.18;;;7.65;;
59854;SDS011;45732;52.850;6.896;2023-05-10T04:21:58;10.05;;;6.72;;
59854;SDS011;45732;52.850;6.896;2023-05-10T04:24:24;9.88;;;6.78;;
59854;SDS011;45732;52.850;6.896;2023-05-10T04:26:50;11.07;;;6.97;;
59854;SDS011;45732;52.850;6.896;2023-05-10T04:29:16;8.57;;;6.50;;
59854;SDS011;45732;52.850;6.896;2023-05-10T04:31:42;11.02;;;7.18;;
59854;SDS011;45732;52.850;6.896;2023-05-10T04:34:07;8.57;;;6.40;;
59854;SDS011;45732;52.850;6.896;2023-05-10T04:36:33;8.70;;;6.70;;
59854;SDS011;45732;52.850;6.896;2023-05-10T04:39:01;9.95;;;6.93;;
59854;SDS011;45732;52.850;6.896;2023-05-10T04:41:28;10.48;;;7.05;;
59854;SDS011;45732;52.850;6.896;2023-05-10T04:43:54;9.30;;;6.90;;
59854;SDS011;45732;52.850;6.896;2023-05-10T04:46:19;10.13;;;7.07;;
59854;SDS011;45732;52.850;6.896;2023-05-10T04:48:45;10.48;;;6.85;;
59854;SDS011;45732;52.850;6.896;2023-05-10T04:51:11;9.88;;;6.97;;
59854;SDS011;45732;52.850;6.896;2023-05-10T04:53:37;11.50;;;7.80;;
59854;SDS011;45732;52.850;6.896;2023-05-10T04:56:03;9.48;;;7.07;;
59854;SDS011;45732;52.850;6.896;2023-05-10T04:58:29;9.80;;;7.57;;
59854;SDS011;45732;52.850;6.896;2023-05-10T05:00:55;8.98;;;6.70;;
59854;SDS011;45732;52.850;6.896;2023-05-10T05:03:21;10.82;;;7.47;;
59854;SDS011;45732;52.850;6.896;2023-05-10T05:05:47;10.52;;;8.10;;
59854;SDS011;45732;52.850;6.896;2023-05-10T05:08:13;9.77;;;7.90;;
59854;SDS011;45732;52.850;6.896;2023-05-10T05:10:39;12.45;;;8.70;;
59854;SDS011;45732;52.850;6.896;2023-05-10T05:13:04;11.93;;;9.02;;
59854;SDS011;45732;52.850;6.896;2023-05-10T05:15:30;13.13;;;8.38;;
59854;SDS011;45732;52.850;6.896;2023-05-10T05:17:56;10.63;;;8.30;;
59854;SDS011;45732;52.850;6.896;2023-05-10T05:20:22;10.95;;;8.45;;
59854;SDS011;45732;52.850;6.896;2023-05-10T05:22:48;11.00;;;8.20;;
59854;SDS011;45732;52.850;6.896;2023-05-10T05:25:14;11.07;;;8.32;;
59854;SDS011;45732;52.850;6.896;2023-05-10T05:27:40;13.13;;;8.85;;
59854;SDS011;45732;52.850;6.896;2023-05-10T05:30:06;11.30;;;8.35;;
59854;SDS011;45732;52.850;6.896;2023-05-10T05:32:32;13.48;;;9.52;;
59854;SDS011;45732;52.850;6.896;2023-05-10T05:34:58;11.20;;;8.10;;
59854;SDS011;45732;52.850;6.896;2023-05-10T05:37:23;10.98;;;8.50;;
59854;SDS011;45732;52.850;6.896;2023-05-10T05:39:49;12.10;;;9.30;;
59854;SDS011;45732;52.850;6.896;2023-05-10T05:42:15;12.57;;;8.75;;
59854;SDS011;45732;52.850;6.896;2023-05-10T05:44:42;11.35;;;8.52;;
59854;SDS011;45732;52.850;6.896;2023-05-10T05:47:08;12.32;;;8.93;;
59854;SDS011;45732;52.850;6.896;2023-05-10T05:49:34;11.55;;;9.48;;
59854;SDS011;45732;52.850;6.896;2023-05-10T05:52:03;11.05;;;8.77;;
59854;SDS011;45732;52.850;6.896;2023-05-10T05:54:30;11.63;;;9.05;;
59854;SDS011;45732;52.850;6.896;2023-05-10T05:56:57;12.15;;;9.02;;
59854;SDS011;45732;52.850;6.896;2023-05-10T05:59:23;15.77;;;9.98;;
59854;SDS011;45732;52.850;6.896;2023-05-10T06:01:49;14.85;;;9.90;;
59854;SDS011;45732;52.850;6.896;2023-05-10T06:04:15;11.98;;;9.27;;
59854;SDS011;45732;52.850;6.896;2023-05-10T06:06:41;13.40;;;9.27;;
59854;SDS011;45732;52.850;6.896;2023-05-10T06:09:07;12.35;;;9.02;;
59854;SDS011;45732;52.850;6.896;2023-05-10T06:11:34;12.70;;;8.98;;
59854;SDS011;45732;52.850;6.896;2023-05-10T06:14:00;15.88;;;8.80;;
59854;SDS011;45732;52.850;6.896;2023-05-10T06:16:26;12.02;;;8.00;;
59854;SDS011;45732;52.850;6.896;2023-05-10T06:18:52;11.30;;;8.43;;
59854;SDS011;45732;52.850;6.896;2023-05-10T06:21:18;14.40;;;9.10;;
59854;SDS011;45732;52.850;6.896;2023-05-10T06:23:44;13.02;;;9.27;;
59854;SDS011;45732;52.850;6.896;2023-05-10T06:26:10;13.32;;;9.02;;
59854;SDS011;45732;52.850;6.896;2023-05-10T06:28:36;12.25;;;8.75;;
59854;SDS011;45732;52.850;6.896;2023-05-10T06:31:04;13.93;;;8.88;;
59854;SDS011;45732;52.850;6.896;2023-05-10T06:33:30;11.38;;;8.43;;
59854;SDS011;45732;52.850;6.896;2023-05-10T06:35:56;14.25;;;8.82;;
59854;SDS011;45732;52.850;6.896;2023-05-10T06:38:22;12.07;;;8.57;;
59854;SDS011;45732;52.850;6.896;2023-05-10T06:40:48;12.30;;;8.40;;
59854;SDS011;45732;52.850;6.896;2023-05-10T06:43:14;12.43;;;8.40;;
59854;SDS011;45732;52.850;6.896;2023-05-10T06:45:39;13.55;;;8.85;;
59854;SDS011;45732;52.850;6.896;2023-05-10T06:48:06;13.07;;;8.32;;
59854;SDS011;45732;52.850;6.896;2023-05-10T06:50:32;11.23;;;8.25;;
59854;SDS011;45732;52.850;6.896;2023-05-10T06:52:58;11.45;;;7.68;;
59854;SDS011;45732;52.850;6.896;2023-05-10T06:55:24;12.50;;;7.97;;
59854;SDS011;45732;52.850;6.896;2023-05-10T06:57:50;12.88;;;7.93;;
59854;SDS011;45732;52.850;6.896;2023-05-10T07:00:16;11.85;;;7.55;;
59854;SDS011;45732;52.850;6.896;2023-05-10T07:02:43;12.82;;;7.70;;
59854;SDS011;45732;52.850;6.896;2023-05-10T07:05:08;12.60;;;7.40;;
59854;SDS011;45732;52.850;6.896;2023-05-10T07:07:34;13.35;;;7.93;;
59854;SDS011;45732;52.850;6.896;2023-05-10T07:10:00;10.88;;;7.22;;
59854;SDS011;45732;52.850;6.896;2023-05-10T07:12:26;9.80;;;6.53;;
59854;SDS011;45732;52.850;6.896;2023-05-10T07:14:52;9.43;;;6.68;;
59854;SDS011;45732;52.850;6.896;2023-05-10T07:17:17;8.98;;;6.15;;
59854;SDS011;45732;52.850;6.896;2023-05-10T07:19:43;9.85;;;5.65;;
59854;SDS011;45732;52.850;6.896;2023-05-10T07:22:09;9.02;;;5.97;;
59854;SDS011;45732;52.850;6.896;2023-05-10T07:24:35;9.32;;;5.72;;
59854;SDS011;45732;52.850;6.896;2023-05-10T07:27:01;8.75;;;6.28;;
59854;SDS011;45732;52.850;6.896;2023-05-10T07:29:27;7.90;;;5.47;;
59854;SDS011;45732;52.850;6.896;2023-05-10T07:31:53;9.68;;;5.50;;
59854;SDS011;45732;52.850;6.896;2023-05-10T07:34:19;10.77;;;6.75;;
59854;SDS011;45732;52.850;6.896;2023-05-10T07:36:45;9.13;;;6.07;;
59854;SDS011;45732;52.850;6.896;2023-05-10T07:39:11;8.77;;;6.07;;
59854;SDS011;45732;52.850;6.896;2023-05-10T07:41:37;9.45;;;5.95;;
59854;SDS011;45732;52.850;6.896;2023-05-10T07:44:03;9.32;;;5.57;;
59854;SDS011;45732;52.850;6.896;2023-05-10T07:46:29;9.95;;;5.88;;
59854;SDS011;45732;52.850;6.896;2023-05-10T07:48:55;8.43;;;5.60;;
59854;SDS011;45732;52.850;6.896;2023-05-10T07:51:21;8.05;;;5.55;;
59854;SDS011;45732;52.850;6.896;2023-05-10T07:53:47;9.00;;;5.85;;
59854;SDS011;45732;52.850;6.896;2023-05-10T07:56:23;10.05;;;5.80;;
59854;SDS011;45732;52.850;6.896;2023-05-10T07:58:51;8.38;;;6.05;;
59854;SDS011;45732;52.850;6.896;2023-05-10T08:01:17;8.60;;;5.57;;
59854;SDS011;45732;52.850;6.896;2023-05-10T08:03:43;13.82;;;6.03;;
59854;SDS011;45732;52.850;6.896;2023-05-10T08:06:09;8.13;;;5.60;;
59854;SDS011;45732;52.850;6.896;2023-05-10T08:08:34;7.93;;;5.80;;
59854;SDS011;45732;52.850;6.896;2023-05-10T08:11:00;8.43;;;5.85;;
59854;SDS011;45732;52.850;6.896;2023-05-10T08:13:26;7.90;;;5.70;;
59854;SDS011;45732;52.850;6.896;2023-05-10T08:15:51;8.43;;;5.60;;
59854;SDS011;45732;52.850;6.896;2023-05-10T08:18:18;6.82;;;4.80;;
59854;SDS011;45732;52.850;6.896;2023-05-10T08:20:44;8.30;;;4.53;;
59854;SDS011;45732;52.850;6.896;2023-05-10T08:23:11;6.20;;;3.97;;
59854;SDS011;45732;52.850;6.896;2023-05-10T08:25:38;6.38;;;3.75;;
59854;SDS011;45732;52.850;6.896;2023-05-10T08:28:04;6.18;;;3.97;;
59854;SDS011;45732;52.850;6.896;2023-05-10T08:30:29;5.80;;;3.88;;
59854;SDS011;45732;52.850;6.896;2023-05-10T08:32:55;6.85;;;4.35;;
59854;SDS011;45732;52.850;6.896;2023-05-10T08:35:21;6.43;;;3.95;;
59854;SDS011;45732;52.850;6.896;2023-05-10T08:37:46;6.93;;;4.20;;
59854;SDS011;45732;52.850;6.896;2023-05-10T08:40:12;8.35;;;4.20;;
59854;SDS011;45732;52.850;6.896;2023-05-10T08:42:40;10.75;;;4.32;;
59854;SDS011;45732;52.850;6.896;2023-05-10T08:45:08;7.15;;;4.07;;
59854;SDS011;45732;52.850;6.896;2023-05-10T08:47:36;6.68;;;3.42;;
59854;SDS011;45732;52.850;6.896;2023-05-10T08:50:03;5.07;;;2.90;;
59854;SDS011;45732;52.850;6.896;2023-05-10T08:52:31;5.47;;;3.38;;
59854;SDS011;45732;52.850;6.896;2023-05-10T08:55:02;5.80;;;3.05;;
59854;SDS011;45732;52.850;6.896;2023-05-10T08:57:28;4.50;;;2.40;;
59854;SDS011;45732;52.850;6.896;2023-05-10T08:59:54;5.22;;;2.65;;
59854;SDS011;45732;52.850;6.896;2023-05-10T09:02:20;3.95;;;2.45;;
59854;SDS011;45732;52.850;6.896;2023-05-10T09:04:47;4.03;;;2.60;;
59854;SDS011;45732;52.850;6.896;2023-05-10T09:07:13;4.80;;;2.53;;
59854;SDS011;45732;52.850;6.896;2023-05-10T09:09:39;3.85;;;2.55;;
59854;SDS011;45732;52.850;6.896;2023-05-10T09:12:05;4.38;;;2.45;;
59854;SDS011;45732;52.850;6.896;2023-05-10T09:14:33;4.97;;;2.67;;
59854;SDS011;45732;52.850;6.896;2023-05-10T09:17:00;3.63;;;2.30;;
59854;SDS011;45732;52.850;6.896;2023-05-10T09:19:27;3.60;;;2.10;;
59854;SDS011;45732;52.850;6.896;2023-05-10T09:21:53;3.97;;;2.17;;
59854;SDS011;45732;52.850;6.896;2023-05-10T09:24:18;4.50;;;2.50;;
59854;SDS011;45732;52.850;6.896;2023-05-10T09:26:47;6.72;;;2.50;;
59854;SDS011;45732;52.850;6.896;2023-05-10T09:29:13;5.47;;;2.38;;
59854;SDS011;45732;52.850;6.896;2023-05-10T09:31:50;6.10;;;2.47;;
59854;SDS011;45732;52.850;6.896;2023-05-10T09:34:17;5.57;;;2.40;;
59854;SDS011;45732;52.850;6.896;2023-05-10T09:36:55;5.75;;;2.63;;
59854;SDS011;45732;52.850;6.896;2023-05-10T09:39:29;4.15;;;2.65;;
59854;SDS011;45732;52.850;6.896;2023-05-10T09:41:57;6.20;;;3.00;;
59854;SDS011;45732;52.850;6.896;2023-05-10T09:44:25;4.47;;;2.97;;
59854;SDS011;45732;52.850;6.896;2023-05-10T09:46:51;5.55;;;3.20;;
59854;SDS011;45732;52.850;6.896;2023-05-10T09:49:18;4.88;;;3.20;;
59854;SDS011;45732;52.850;6.896;2023-05-10T09:51:45;7.63;;;3.00;;
59854;SDS011;45732;52.850;6.896;2023-05-10T09:54:12;6.85;;;3.15;;
59854;SDS011;45732;52.850;6.896;2023-05-10T09:56:41;6.03;;;3.47;;
59854;SDS011;45732;52.850;6.896;2023-05-10T09:59:09;6.22;;;2.70;;
59854;SDS011;45732;52.850;6.896;2023-05-10T10:01:37;4.95;;;2.83;;
59854;SDS011;45732;52.850;6.896;2023-05-10T10:04:06;4.13;;;2.80;;
59854;SDS011;45732;52.850;6.896;2023-05-10T10:06:37;5.78;;;2.67;;
59854;SDS011;45732;52.850;6.896;2023-05-10T10:09:04;5.43;;;2.80;;
59854;SDS011;45732;52.850;6.896;2023-05-10T10:11:31;7.22;;;3.10;;
59854;SDS011;45732;52.850;6.896;2023-05-10T10:13:57;8.65;;;4.40;;
59854;SDS011;45732;52.850;6.896;2023-05-10T10:16:24;7.20;;;4.70;;
59854;SDS011;45732;52.850;6.896;2023-05-10T10:18:50;6.78;;;4.63;;
59854;SDS011;45732;52.850;6.896;2023-05-10T10:21:15;9.52;;;6.05;;
59854;SDS011;45732;52.850;6.896;2023-05-10T10:23:42;9.50;;;5.82;;
59854;SDS011;45732;52.850;6.896;2023-05-10T10:26:08;8.50;;;6.20;;
59854;SDS011;45732;52.850;6.896;2023-05-10T10:31:36;10.00;;;5.80;;
59854;SDS011;45732;52.850;6.896;2023-05-10T10:34:27;8.82;;;6.30;;
59854;SDS011;45732;52.850;6.896;2023-05-10T10:36:55;8.68;;;6.07;;
59854;SDS011;45732;52.850;6.896;2023-05-10T10:39:21;10.40;;;6.30;;
59854;SDS011;45732;52.850;6.896;2023-05-10T10:41:53;10.20;;;6.50;;
59854;SDS011;45732;52.850;6.896;2023-05-10T10:57:23;9.70;;;6.78;;
59854;SDS011;45732;52.850;6.896;2023-05-10T10:59:51;9.43;;;6.70;;
59854;SDS011;45732;52.850;6.896;2023-05-10T11:07:54;9.13;;;6.22;;
59854;SDS011;45732;52.850;6.896;2023-05-10T11:10:22;9.43;;;6.13;;
59854;SDS011;45732;52.850;6.896;2023-05-10T11:13:02;8.63;;;5.57;;
59854;SDS011;45732;52.850;6.896;2023-05-10T11:15:39;8.88;;;5.43;;
59854;SDS011;45732;52.850;6.896;2023-05-10T11:18:16;8.43;;;6.03;;
59854;SDS011;45732;52.850;6.896;2023-05-10T11:23:21;8.88;;;6.30;;
59854;SDS011;45732;52.850;6.896;2023-05-10T11:25:48;11.60;;;6.63;;
59854;SDS011;45732;52.850;6.896;2023-05-10T11:28:16;8.88;;;6.00;;
59854;SDS011;45732;52.850;6.896;2023-05-10T11:30:43;9.25;;;5.75;;
59854;SDS011;45732;52.850;6.896;2023-05-10T11:33:11;9.57;;;6.15;;
59854;SDS011;45732;52.850;6.896;2023-05-10T11:35:41;9.35;;;5.88;;
59854;SDS011;45732;52.850;6.896;2023-05-10T11:38:08;9.73;;;5.82;;
59854;SDS011;45732;52.850;6.896;2023-05-10T11:40:35;8.57;;;6.32;;
59854;SDS011;45732;52.850;6.896;2023-05-10T11:43:02;11.40;;;6.43;;
59854;SDS011;45732;52.850;6.896;2023-05-10T11:45:28;10.25;;;6.30;;
59854;SDS011;45732;52.850;6.896;2023-05-10T11:47:57;9.30;;;5.65;;
59854;SDS011;45732;52.850;6.896;2023-05-10T11:50:23;7.28;;;4.25;;
59854;SDS011;45732;52.850;6.896;2023-05-10T11:52:52;6.45;;;4.10;;
59854;SDS011;45732;52.850;6.896;2023-05-10T11:55:19;8.85;;;4.70;;
59854;SDS011;45732;52.850;6.896;2023-05-10T11:57:45;6.88;;;4.38;;
59854;SDS011;45732;52.850;6.896;2023-05-10T12:00:11;6.75;;;4.78;;
59854;SDS011;45732;52.850;6.896;2023-05-10T12:02:38;7.55;;;5.50;;
59854;SDS011;45732;52.850;6.896;2023-05-10T12:05:04;6.80;;;4.80;;
59854;SDS011;45732;52.850;6.896;2023-05-10T12:07:31;6.85;;;4.60;;
59854;SDS011;45732;52.850;6.896;2023-05-10T12:12:36;8.30;;;5.05;;
59854;SDS011;45732;52.850;6.896;2023-05-10T12:15:04;7.85;;;5.07;;
59854;SDS011;45732;52.850;6.896;2023-05-10T12:17:31;8.35;;;4.80;;
59854;SDS011;45732;52.850;6.896;2023-05-10T12:22:58;8.75;;;5.00;;
59854;SDS011;45732;52.850;6.896;2023-05-10T12:25:30;7.63;;;4.43;;
59854;SDS011;45732;52.850;6.896;2023-05-10T12:28:02;8.18;;;4.15;;
59854;SDS011;45732;52.850;6.896;2023-05-10T12:30:33;6.28;;;4.25;;
59854;SDS011;45732;52.850;6.896;2023-05-10T12:33:21;7.20;;;4.30;;
59854;SDS011;45732;52.850;6.896;2023-05-10T12:35:52;8.45;;;5.00;;
59854;SDS011;45732;52.850;6.896;2023-05-10T12:38:29;8.93;;;5.10;;
59854;SDS011;45732;52.850;6.896;2023-05-10T12:41:04;7.80;;;5.25;;
59854;SDS011;45732;52.850;6.896;2023-05-10T12:43:31;8.52;;;4.40;;
59854;SDS011;45732;52.850;6.896;2023-05-10T12:45:58;7.30;;;4.72;;
59854;SDS011;45732;52.850;6.896;2023-05-10T12:48:24;8.10;;;4.97;;
59854;SDS011;45732;52.850;6.896;2023-05-10T12:50:50;6.82;;;4.57;;
59854;SDS011;45732;52.850;6.896;2023-05-10T12:53:15;8.13;;;4.68;;
59854;SDS011;45732;52.850;6.896;2023-05-10T12:55:42;7.32;;;4.82;;
59854;SDS011;45732;52.850;6.896;2023-05-10T12:58:08;8.95;;;5.75;;
59854;SDS011;45732;52.850;6.896;2023-05-10T13:00:34;8.50;;;5.30;;
59854;SDS011;45732;52.850;6.896;2023-05-10T13:03:03;9.07;;;6.18;;
59854;SDS011;45732;52.850;6.896;2023-05-10T13:05:34;9.18;;;6.45;;
59854;SDS011;45732;52.850;6.896;2023-05-10T13:08:00;9.27;;;6.60;;
59854;SDS011;45732;52.850;6.896;2023-05-10T13:10:28;9.75;;;6.53;;
59854;SDS011;45732;52.850;6.896;2023-05-10T13:12:54;11.35;;;7.47;;
59854;SDS011;45732;52.850;6.896;2023-05-10T13:15:20;10.45;;;7.45;;
59854;SDS011;45732;52.850;6.896;2023-05-10T13:17:46;10.07;;;7.72;;
59854;SDS011;45732;52.850;6.896;2023-05-10T13:20:12;11.32;;;8.38;;
59854;SDS011;45732;52.850;6.896;2023-05-10T13:22:37;14.38;;;9.20;;
59854;SDS011;45732;52.850;6.896;2023-05-10T13:25:03;12.65;;;8.32;;
59854;SDS011;45732;52.850;6.896;2023-05-10T13:27:29;11.02;;;7.78;;
59854;SDS011;45732;52.850;6.896;2023-05-10T13:29:55;10.70;;;7.47;;
59854;SDS011;45732;52.850;6.896;2023-05-10T13:32:21;11.73;;;7.75;;
59854;SDS011;45732;52.850;6.896;2023-05-10T13:34:46;12.23;;;8.73;;
59854;SDS011;45732;52.850;6.896;2023-05-10T13:37:12;12.43;;;9.52;;
59854;SDS011;45732;52.850;6.896;2023-05-10T13:39:38;13.07;;;9.38;;
59854;SDS011;45732;52.850;6.896;2023-05-10T13:42:04;12.93;;;9.90;;
59854;SDS011;45732;52.850;6.896;2023-05-10T13:44:29;12.07;;;8.63;;
59854;SDS011;45732;52.850;6.896;2023-05-10T13:46:56;12.63;;;8.90;;
59854;SDS011;45732;52.850;6.896;2023-05-10T13:49:22;10.68;;;7.53;;
59854;SDS011;45732;52.850;6.896;2023-05-10T13:51:47;11.50;;;7.20;;
59854;SDS011;45732;52.850;6.896;2023-05-10T13:54:13;10.35;;;7.20;;
59854;SDS011;45732;52.850;6.896;2023-05-10T13:56:39;9.90;;;6.68;;
59854;SDS011;45732;52.850;6.896;2023-05-10T13:59:07;10.13;;;7.38;;
59854;SDS011;45732;52.850;6.896;2023-05-10T14:01:33;13.15;;;8.00;;
59854;SDS011;45732;52.850;6.896;2023-05-10T14:03:59;10.10;;;6.97;;
59854;SDS011;45732;52.850;6.896;2023-05-10T14:06:25;10.48;;;7.22;;
59854;SDS011;45732;52.850;6.896;2023-05-10T14:08:52;11.40;;;8.10;;
59854;SDS011;45732;52.850;6.896;2023-05-10T14:11:18;10.23;;;6.97;;
59854;SDS011;45732;52.850;6.896;2023-05-10T14:13:44;10.32;;;6.25;;
59854;SDS011;45732;52.850;6.896;2023-05-10T14:16:10;8.25;;;4.45;;
59854;SDS011;45732;52.850;6.896;2023-05-10T14:18:36;7.65;;;4.78;;
59854;SDS011;45732;52.850;6.896;2023-05-10T14:21:03;9.32;;;5.10;;
59854;SDS011;45732;52.850;6.896;2023-05-10T14:23:29;12.43;;;5.35;;
59854;SDS011;45732;52.850;6.896;2023-05-10T14:25:55;9.65;;;5.60;;
59854;SDS011;45732;52.850;6.896;2023-05-10T14:28:21;9.40;;;5.68;;
59854;SDS011;45732;52.850;6.896;2023-05-10T14:30:48;14.98;;;6.30;;
59854;SDS011;45732;52.850;6.896;2023-05-10T14:33:13;8.90;;;4.82;;
59854;SDS011;45732;52.850;6.896;2023-05-10T14:35:39;8.57;;;4.32;;
59854;SDS011;45732;52.850;6.896;2023-05-10T14:38:05;8.38;;;4.00;;
59854;SDS011;45732;52.850;6.896;2023-05-10T14:40:31;9.02;;;4.30;;
59854;SDS011;45732;52.850;6.896;2023-05-10T14:42:57;7.82;;;4.18;;
59854;SDS011;45732;52.850;6.896;2023-05-10T14:45:23;9.43;;;4.35;;
59854;SDS011;45732;52.850;6.896;2023-05-10T14:47:49;8.63;;;4.85;;
59854;SDS011;45732;52.850;6.896;2023-05-10T14:50:15;8.90;;;4.78;;
59854;SDS011;45732;52.850;6.896;2023-05-10T14:52:43;7.95;;;4.47;;
59854;SDS011;45732;52.850;6.896;2023-05-10T14:55:09;10.82;;;5.25;;
59854;SDS011;45732;52.850;6.896;2023-05-10T14:57:34;9.95;;;5.18;;
59854;SDS011;45732;52.850;6.896;2023-05-10T15:00:00;10.95;;;5.25;;
59854;SDS011;45732;52.850;6.896;2023-05-10T15:02:26;9.05;;;5.20;;
59854;SDS011;45732;52.850;6.896;2023-05-10T15:04:52;9.15;;;5.28;;
59854;SDS011;45732;52.850;6.896;2023-05-10T15:07:18;8.75;;;5.32;;
59854;SDS011;45732;52.850;6.896;2023-05-10T15:09:44;10.70;;;5.30;;
59854;SDS011;45732;52.850;6.896;2023-05-10T15:29:01;9.50;;;6.10;;
59854;SDS011;45732;52.850;6.896;2023-05-10T15:31:27;12.23;;;8.23;;
59854;SDS011;45732;52.850;6.896;2023-05-10T15:33:58;8.70;;;5.90;;
59854;SDS011;45732;52.850;6.896;2023-05-10T15:36:24;10.20;;;6.17;;
59854;SDS011;45732;52.850;6.896;2023-05-10T15:38:50;9.90;;;6.63;;
59854;SDS011;45732;52.850;6.896;2023-05-10T15:41:16;10.23;;;6.13;;
59854;SDS011;45732;52.850;6.896;2023-05-10T15:43:42;9.82;;;6.70;;
59854;SDS011;45732;52.850;6.896;2023-05-10T15:46:07;9.77;;;6.25;;
59854;SDS011;45732;52.850;6.896;2023-05-10T15:48:33;9.55;;;6.10;;
59854;SDS011;45732;52.850;6.896;2023-05-10T15:50:59;9.73;;;5.85;;
59854;SDS011;45732;52.850;6.896;2023-05-10T15:53:24;10.80;;;5.88;;